Grisdale, Washington
Current Conditions -  °F | °C
As of 3:35 AM on Wednesday 26 Nov 2014 (Local Time) from KSHN Reporting Station
Light Rain Light Rain  
Wind Chill: 54°   Ceiling: 1500
Heat Index: 54°   Visibility: 2mi
Dew Point: 54°   Wind: 5mph
Humidity: 100%   Direction: 160°SSE
Pressure: 30.15"   Gusts: NA
Location:  47.555°N, 123.746°W
Report Text: KSHN 261135Z AUTO 16004KT 2SM -RA BR OVC015 12/12 A3015 RMK AO2 P0004 T01220122
Loading
Personal Weather Stations






























Interactive Weather Map New forecast layout! Learn more

10-Day Weather Forecast

Advertisements
Track Severe Weather on mobile